createdAt,value
2023-02-04T00:00:29.324Z,0.80
2023-02-04T00:02:57.523Z,0.77
2023-02-04T00:05:26.829Z,0.60
2023-02-04T00:07:54.747Z,0.57
2023-02-04T00:10:22.607Z,0.80
2023-02-04T00:12:50.520Z,0.50
2023-02-04T00:15:18.415Z,0.80
2023-02-04T00:17:46.302Z,0.53
2023-02-04T00:20:14.378Z,0.63
2023-02-04T00:22:43.882Z,0.40
2023-02-04T00:25:12.114Z,0.60
2023-02-04T00:27:40.096Z,0.63
2023-02-04T00:30:09.473Z,0.70
2023-02-04T00:32:37.375Z,0.30
2023-02-04T00:35:05.571Z,0.50
2023-02-04T00:37:33.526Z,0.50
2023-02-04T00:40:02.774Z,0.70
2023-02-04T00:42:30.670Z,0.70
2023-02-04T00:44:58.669Z,0.60
2023-02-04T00:47:26.597Z,0.80
2023-02-04T00:49:54.451Z,0.57
2023-02-04T00:52:22.348Z,0.57
2023-02-04T00:54:50.213Z,0.70
2023-02-04T00:57:20.139Z,0.60
2023-02-04T00:59:48.072Z,0.80
2023-02-04T01:02:18.156Z,0.70
2023-02-04T01:04:46.243Z,0.77
2023-02-04T01:07:14.388Z,0.77
2023-02-04T01:09:42.331Z,0.80
2023-02-04T01:12:10.206Z,1.17
2023-02-04T01:14:39.428Z,1.07
2023-02-04T01:17:07.880Z,1.10
2023-02-04T01:19:35.943Z,1.03
2023-02-04T01:22:03.807Z,1.23
2023-02-04T01:24:31.671Z,1.13
2023-02-04T01:26:59.625Z,1.37
2023-02-04T01:29:27.514Z,1.40
2023-02-04T01:31:56.864Z,1.20
2023-02-04T01:34:25.967Z,1.40
2023-02-04T01:36:53.853Z,1.87
2023-02-04T01:39:21.694Z,1.47
2023-02-04T01:41:49.623Z,1.27
2023-02-04T01:44:17.804Z,1.63
2023-02-04T01:46:45.741Z,1.27
2023-02-04T01:49:15.195Z,1.50
2023-02-04T01:51:43.393Z,1.50
2023-02-04T01:54:12.806Z,1.60
2023-02-04T01:56:41.825Z,1.43
2023-02-04T01:59:13.847Z,1.60
2023-02-04T02:01:43.743Z,2.00
2023-02-04T02:04:12.888Z,2.20
2023-02-04T02:06:45.344Z,1.80
2023-02-04T02:09:13.376Z,1.77
2023-02-04T02:11:41.323Z,2.30
2023-02-04T02:14:09.630Z,1.90
2023-02-04T02:16:37.689Z,1.90
2023-02-04T02:19:08.173Z,1.97
2023-02-04T02:21:41.631Z,1.80
2023-02-04T02:24:30.594Z,2.77
2023-02-04T02:27:01.594Z,2.07
2023-02-04T02:29:30.291Z,2.30
2023-02-04T02:31:59.190Z,2.20
2023-02-04T02:34:28.399Z,1.97
2023-02-04T02:36:56.719Z,1.90
2023-02-04T02:39:25.051Z,1.80
2023-02-04T02:41:54.615Z,2.27
2023-02-04T02:44:22.854Z,2.17
2023-02-04T02:46:50.853Z,2.43
2023-02-04T02:49:20.868Z,1.97
2023-02-04T02:51:49.782Z,2.20
2023-02-04T02:54:24.149Z,2.07
2023-02-04T02:56:54.167Z,1.67
2023-02-04T02:59:22.017Z,1.87
2023-02-04T03:01:55.552Z,2.13
2023-02-04T03:04:23.748Z,2.00
2023-02-04T03:06:52.388Z,1.60
2023-02-04T03:09:21.182Z,1.77
2023-02-04T03:11:49.455Z,1.60
2023-02-04T03:14:19.071Z,1.57
2023-02-04T03:16:48.486Z,1.60
2023-02-04T03:19:16.772Z,1.67
2023-02-04T03:21:44.828Z,1.17
2023-02-04T03:24:13.171Z,0.97
2023-02-04T03:26:41.057Z,1.30
2023-02-04T03:29:10.261Z,1.10
2023-02-04T03:31:39.933Z,1.13
2023-02-04T03:34:07.891Z,0.67
2023-02-04T03:36:36.611Z,1.00
2023-02-04T03:39:04.899Z,1.13
2023-02-04T03:41:32.911Z,1.10
2023-02-04T03:44:00.764Z,0.70
2023-02-04T03:46:28.925Z,0.90
2023-02-04T03:48:58.183Z,0.90
2023-02-04T03:51:26.161Z,0.87
2023-02-04T03:53:54.039Z,1.03
2023-02-04T03:56:21.892Z,0.97
2023-02-04T03:58:49.826Z,0.83
2023-02-04T04:01:17.762Z,0.70
2023-02-04T04:03:45.713Z,0.67
2023-02-04T04:06:14.873Z,1.40
2023-02-04T04:08:42.708Z,0.73
2023-02-04T04:11:10.543Z,1.17
2023-02-04T04:13:38.390Z,1.30
2023-02-04T04:16:06.993Z,1.20
2023-02-04T04:18:34.983Z,2.50
2023-02-04T04:21:03.265Z,0.70
2023-02-04T04:23:32.443Z,1.30
2023-02-04T04:26:00.286Z,0.70
2023-02-04T04:28:28.112Z,0.57
2023-02-04T04:30:56.230Z,0.97
2023-02-04T04:33:24.136Z,0.53
2023-02-04T04:35:51.998Z,0.90
2023-02-04T04:38:19.898Z,1.13
2023-02-04T04:40:49.118Z,0.83
2023-02-04T04:43:17.131Z,0.60
2023-02-04T04:45:44.981Z,0.63
2023-02-04T04:48:12.883Z,0.50
2023-02-04T04:50:40.732Z,0.63
2023-02-04T04:53:11.346Z,0.50
2023-02-04T04:55:39.249Z,0.77
2023-02-04T04:58:09.712Z,0.63
2023-02-04T05:00:37.730Z,0.80
2023-02-04T05:03:06.011Z,1.00
2023-02-04T05:05:34.096Z,0.50
2023-02-04T05:08:01.948Z,0.80
2023-02-04T05:10:31.136Z,0.60
2023-02-04T05:12:59.262Z,0.60
2023-02-04T05:15:28.513Z,0.67
2023-02-04T05:17:56.368Z,0.50
2023-02-04T05:20:24.223Z,0.73
2023-02-04T05:22:52.413Z,0.87
2023-02-04T05:25:20.261Z,0.63
2023-02-04T05:27:48.144Z,0.80
2023-02-04T05:30:16.577Z,0.37
2023-02-04T05:32:45.807Z,0.50
2023-02-04T05:35:13.721Z,1.00
2023-02-04T05:37:41.564Z,0.63
2023-02-04T05:40:10.272Z,0.80
2023-02-04T05:42:38.249Z,0.93
2023-02-04T05:45:06.650Z,0.80
2023-02-04T05:47:34.578Z,0.83
2023-02-04T05:50:03.811Z,1.03
2023-02-04T05:52:31.679Z,1.20
2023-02-04T05:54:59.552Z,1.13
2023-02-04T05:57:27.441Z,1.47
2023-02-04T05:59:55.306Z,1.20
2023-02-04T06:02:23.176Z,1.10
2023-02-04T06:04:51.077Z,1.73
2023-02-04T06:07:20.450Z,1.27
2023-02-04T06:09:48.539Z,1.53
2023-02-04T06:12:16.431Z,1.90
2023-02-04T06:14:44.239Z,2.10
2023-02-04T06:17:12.096Z,2.20
2023-02-04T06:19:39.970Z,1.67
2023-02-04T06:22:07.841Z,1.90
2023-02-04T06:24:37.072Z,2.60
2023-02-04T06:27:05.059Z,2.30
2023-02-04T06:29:32.891Z,2.23
2023-02-04T06:32:00.806Z,1.83
2023-02-04T06:34:28.666Z,2.33
2023-02-04T06:36:56.537Z,1.60
2023-02-04T06:39:24.448Z,2.20
2023-02-04T06:41:53.690Z,2.53
2023-02-04T06:44:21.528Z,2.57
2023-02-04T06:46:49.375Z,2.53
2023-02-04T06:49:17.264Z,2.23
2023-02-04T06:51:45.152Z,2.53
2023-02-04T06:54:13.062Z,2.43
2023-02-04T06:56:41.059Z,2.60
2023-02-04T06:59:10.537Z,2.50
2023-02-04T07:01:38.457Z,2.20
2023-02-04T07:04:06.489Z,2.70
2023-02-04T07:06:34.466Z,2.37
2023-02-04T07:09:02.369Z,3.10
2023-02-04T07:11:30.561Z,3.30
2023-02-04T07:13:58.446Z,1.83
2023-02-04T07:16:27.716Z,4.33
2023-02-04T07:18:55.552Z,5.33
2023-02-04T07:21:23.526Z,4.60
2023-02-04T07:23:51.361Z,4.23
2023-02-04T07:26:19.217Z,3.57
2023-02-04T07:28:47.156Z,3.20
2023-02-04T07:31:15.118Z,4.10
2023-02-04T07:33:44.462Z,3.13
2023-02-04T07:36:13.773Z,4.57
2023-02-04T07:38:43.008Z,4.40
2023-02-04T07:41:10.844Z,4.40
2023-02-04T07:43:38.876Z,5.27
2023-02-04T07:46:06.982Z,5.27
2023-02-04T07:48:34.878Z,4.33
2023-02-04T07:51:04.397Z,2.43
2023-02-04T07:53:32.243Z,2.40
2023-02-04T07:56:03.380Z,4.07
2023-02-04T07:58:32.088Z,4.63
2023-02-04T08:01:01.494Z,6.00
2023-02-04T08:03:30.204Z,5.37
2023-02-04T08:05:58.790Z,4.87
2023-02-04T08:08:28.849Z,4.70
2023-02-04T08:10:58.551Z,5.57
2023-02-04T08:13:26.602Z,4.67
2023-02-04T08:15:54.474Z,5.10
2023-02-04T08:18:22.327Z,4.93
2023-02-04T08:20:50.170Z,5.20
2023-02-04T08:23:18.036Z,5.20
2023-02-04T08:25:47.288Z,7.40
2023-02-04T08:28:15.365Z,8.30
2023-02-04T08:30:43.461Z,8.10
2023-02-04T08:33:11.344Z,7.40
2023-02-04T08:35:39.293Z,5.27
2023-02-04T08:38:07.140Z,5.13
2023-02-04T08:40:35.069Z,4.40
2023-02-04T08:43:04.407Z,3.20
2023-02-04T08:45:32.233Z,3.03
2023-02-04T08:48:00.109Z,3.57
2023-02-04T08:50:28.882Z,3.37
2023-02-04T08:52:56.786Z,3.90
2023-02-04T08:55:24.614Z,4.40
2023-02-04T08:57:52.546Z,3.73
2023-02-04T09:00:22.251Z,4.03
2023-02-04T09:02:50.093Z,9.00
2023-02-04T09:05:18.036Z,8.40
2023-02-04T09:07:46.130Z,4.40
2023-02-04T09:10:14.017Z,9.80
2023-02-04T09:12:42.722Z,3.77
2023-02-04T09:15:11.701Z,8.07
2023-02-04T09:17:43.835Z,6.20
2023-02-04T09:20:12.742Z,4.60
2023-02-04T09:22:40.720Z,5.20
2023-02-04T09:25:09.668Z,5.80
2023-02-04T09:27:37.550Z,4.00
2023-02-04T09:30:06.014Z,4.23
2023-02-04T09:32:33.972Z,6.73
2023-02-04T09:35:03.164Z,4.20
2023-02-04T09:37:31.013Z,4.90
2023-02-04T09:39:58.855Z,4.17
2023-02-04T09:42:27.674Z,4.07
2023-02-04T09:44:55.552Z,3.63
2023-02-04T09:47:26.384Z,4.27
2023-02-04T09:49:54.357Z,4.50
2023-02-04T09:52:24.659Z,4.27
2023-02-04T09:54:52.531Z,3.50
2023-02-04T09:57:21.354Z,4.17
2023-02-04T09:59:50.588Z,3.70
2023-02-04T10:02:26.452Z,4.03
2023-02-04T10:04:58.463Z,3.60
2023-02-04T10:07:28.969Z,3.53
2023-02-04T10:09:57.051Z,4.13
2023-02-04T10:12:25.807Z,3.90
2023-02-04T10:14:53.800Z,4.20
2023-02-04T10:17:23.372Z,3.60
2023-02-04T10:19:51.615Z,3.83
2023-02-04T10:22:21.737Z,3.90
2023-02-04T10:24:51.004Z,3.47
2023-02-04T10:27:18.873Z,3.27
2023-02-04T10:29:56.857Z,4.57
2023-02-04T10:32:32.674Z,4.03
2023-02-04T10:35:01.961Z,4.33
2023-02-04T10:37:30.653Z,3.17
2023-02-04T10:39:59.906Z,3.13
2023-02-04T10:42:29.610Z,2.90
2023-02-04T10:44:57.821Z,2.73
2023-02-04T10:47:28.980Z,2.97
2023-02-04T10:49:59.971Z,3.03
2023-02-04T10:52:34.813Z,3.17
2023-02-04T10:55:04.574Z,3.53
2023-02-04T10:57:34.648Z,3.10
2023-02-04T11:00:03.680Z,2.73
2023-02-04T11:02:37.931Z,3.33
2023-02-04T11:05:15.282Z,3.10
2023-02-04T11:07:43.440Z,3.03
2023-02-04T11:10:18.000Z,3.10
2023-02-04T11:12:48.660Z,3.30
2023-02-04T11:15:44.431Z,3.53
2023-02-04T11:18:14.949Z,3.20
2023-02-04T11:20:44.144Z,3.87
2023-02-04T11:23:18.612Z,4.30
2023-02-04T11:25:48.726Z,4.03
2023-02-04T11:28:17.346Z,4.23
2023-02-04T11:30:45.376Z,3.80
2023-02-04T11:33:24.976Z,3.83
2023-02-04T11:36:02.768Z,3.00
2023-02-04T11:38:33.120Z,3.17
2023-02-04T11:41:03.153Z,3.57
2023-02-04T11:43:34.563Z,3.50
2023-02-04T11:46:04.923Z,4.07
2023-02-04T11:48:34.372Z,2.57
2023-02-04T11:51:05.841Z,3.20
2023-02-04T11:53:35.828Z,2.73
2023-02-04T11:56:05.738Z,3.00
2023-02-04T11:58:34.151Z,2.50
2023-02-04T12:01:02.047Z,2.53
2023-02-04T12:03:34.120Z,2.80
2023-02-04T12:06:02.133Z,2.67
2023-02-04T12:08:35.201Z,3.07
2023-02-04T12:11:15.851Z,2.50
2023-02-04T12:13:52.096Z,3.00
2023-02-04T12:16:20.378Z,3.30
2023-02-04T12:18:48.306Z,3.17
2023-02-04T12:21:16.194Z,2.90
2023-02-04T12:23:44.051Z,3.57
2023-02-04T12:26:13.413Z,3.83
2023-02-04T12:28:41.266Z,4.13
2023-02-04T12:31:09.306Z,4.53
2023-02-04T12:33:37.308Z,2.60
2023-02-04T12:36:05.791Z,2.57
2023-02-04T12:38:33.658Z,2.20
2023-02-04T12:41:01.545Z,2.70
2023-02-04T12:43:30.817Z,2.67
2023-02-04T12:45:58.678Z,3.00
2023-02-04T12:48:27.014Z,2.80
2023-02-04T12:50:55.183Z,2.33
2023-02-04T12:53:23.329Z,3.23
2023-02-04T12:55:51.567Z,2.47
2023-02-04T12:58:19.391Z,3.17
2023-02-04T13:00:48.708Z,2.50
2023-02-04T13:03:16.627Z,2.37
2023-02-04T13:05:44.523Z,2.30
2023-02-04T13:08:12.404Z,2.80
2023-02-04T13:10:40.256Z,3.07
2023-02-04T13:13:08.103Z,2.07
2023-02-04T13:15:35.974Z,2.40
2023-02-04T13:18:05.517Z,2.20
2023-02-04T13:20:33.366Z,2.23
2023-02-04T13:23:01.212Z,2.60
2023-02-04T13:25:29.083Z,2.90
2023-02-04T13:27:56.973Z,2.60
2023-02-04T13:30:24.878Z,2.67
2023-02-04T13:32:52.803Z,3.27
2023-02-04T13:35:22.015Z,2.40
2023-02-04T13:37:49.929Z,2.97
2023-02-04T13:40:18.153Z,2.80
2023-02-04T13:42:46.014Z,2.77
2023-02-04T13:45:15.513Z,2.87
2023-02-04T13:47:43.398Z,2.50
2023-02-04T13:50:11.420Z,3.13
2023-02-04T13:52:40.610Z,3.00
2023-02-04T13:55:08.580Z,2.90
2023-02-04T13:57:37.381Z,2.63
2023-02-04T14:00:06.845Z,2.47
2023-02-04T14:02:34.739Z,3.67
2023-02-04T14:05:02.735Z,2.57
2023-02-04T14:07:30.630Z,3.07
2023-02-04T14:10:00.130Z,2.90
2023-02-04T14:12:28.011Z,3.03
2023-02-04T14:14:55.864Z,3.63
2023-02-04T14:17:23.722Z,3.90
2023-02-04T14:19:51.577Z,3.23
2023-02-04T14:22:19.529Z,2.97
2023-02-04T14:24:47.645Z,3.60
2023-02-04T14:27:16.896Z,2.97
2023-02-04T14:29:44.764Z,2.97
2023-02-04T14:32:12.652Z,2.80
2023-02-04T14:34:41.502Z,2.77
2023-02-04T14:37:09.345Z,2.83
2023-02-04T14:39:37.188Z,2.77
2023-02-04T14:42:05.484Z,2.60
2023-02-04T14:44:34.678Z,3.23
2023-02-04T14:47:02.568Z,2.50
2023-02-04T14:49:30.472Z,2.93
2023-02-04T14:51:58.320Z,2.83
2023-02-04T14:54:26.157Z,3.27
2023-02-04T14:56:54.015Z,4.50
2023-02-04T14:59:22.089Z,2.50
2023-02-04T15:01:51.294Z,3.17
2023-02-04T15:04:19.409Z,3.07
2023-02-04T15:06:47.735Z,2.27
2023-02-04T15:09:15.663Z,2.43
2023-02-04T15:11:43.524Z,2.70
2023-02-04T15:14:11.453Z,2.70
2023-02-04T15:16:39.401Z,2.47
2023-02-04T15:19:08.874Z,2.43
2023-02-04T15:21:36.762Z,2.97
2023-02-04T15:24:04.813Z,3.07
2023-02-04T15:26:32.897Z,3.00
2023-02-04T15:29:01.681Z,3.30
2023-02-04T15:31:29.617Z,3.67
2023-02-04T15:33:57.733Z,3.83
2023-02-04T15:36:26.994Z,3.17
2023-02-04T15:38:54.844Z,4.13
2023-02-04T15:41:22.989Z,4.93
2023-02-04T15:43:50.915Z,5.03
2023-02-04T15:46:18.781Z,4.77
2023-02-04T15:48:46.619Z,3.60
2023-02-04T15:51:14.476Z,3.90
2023-02-04T15:53:43.728Z,3.57
2023-02-04T15:56:11.766Z,3.73
2023-02-04T15:58:39.897Z,4.30
2023-02-04T16:01:07.781Z,4.87
2023-02-04T16:03:35.725Z,5.67
2023-02-04T16:06:04.187Z,4.90
2023-02-04T16:08:32.092Z,4.47
2023-02-04T16:11:01.283Z,5.00
2023-02-04T16:13:29.176Z,4.10
2023-02-04T16:15:57.093Z,3.30
2023-02-04T16:18:25.726Z,3.73
2023-02-04T16:20:53.691Z,4.33
2023-02-04T16:23:21.559Z,4.10
2023-02-04T16:25:49.391Z,4.90
2023-02-04T16:28:19.084Z,5.77
2023-02-04T16:30:47.014Z,7.90
2023-02-04T16:33:15.079Z,7.03
2023-02-04T16:36:00.924Z,7.07
2023-02-04T16:38:29.573Z,7.83
2023-02-04T16:40:57.688Z,6.90
2023-02-04T16:43:27.159Z,6.77
2023-02-04T16:45:55.662Z,9.63
2023-02-04T16:48:23.881Z,11.97
2023-02-04T16:50:52.198Z,9.43
2023-02-04T16:53:20.138Z,6.23
2023-02-04T16:55:49.126Z,5.43
2023-02-04T16:58:18.100Z,5.20
2023-02-04T17:00:47.393Z,8.20
2023-02-04T17:03:15.973Z,7.40
2023-02-04T17:05:43.929Z,7.90
2023-02-04T17:08:13.702Z,6.17
2023-02-04T17:10:59.285Z,5.73
2023-02-04T17:13:27.143Z,4.57
2023-02-04T17:16:00.792Z,4.97
2023-02-04T17:18:29.944Z,5.50
2023-02-04T17:20:58.288Z,5.73
2023-02-04T17:23:26.921Z,5.87
2023-02-04T17:25:54.985Z,7.87
2023-02-04T17:28:24.238Z,5.27
2023-02-04T17:30:52.232Z,5.87
2023-02-04T17:33:21.710Z,6.40
2023-02-04T17:35:49.722Z,4.93
2023-02-04T17:38:17.627Z,6.33
2023-02-04T17:40:46.514Z,6.80
2023-02-04T17:43:14.563Z,10.63
2023-02-04T17:45:42.453Z,43.57
2023-02-04T17:48:10.300Z,16.60
2023-02-04T17:50:40.259Z,9.67
2023-02-04T17:53:09.425Z,6.90
2023-02-04T17:55:39.405Z,8.10
2023-02-04T17:58:14.906Z,11.13
2023-02-04T18:00:44.366Z,6.27
2023-02-04T18:03:14.429Z,2.90
2023-02-04T18:05:46.753Z,2.03
2023-02-04T18:08:17.577Z,2.20
2023-02-04T18:10:47.479Z,3.30
2023-02-04T18:13:17.690Z,9.80
2023-02-04T18:15:47.329Z,8.90
2023-02-04T18:18:24.503Z,4.60
2023-02-04T18:21:00.151Z,4.20
2023-02-04T18:23:30.285Z,4.20
2023-02-04T18:26:02.772Z,4.30
2023-02-04T18:28:30.650Z,3.60
2023-02-04T18:31:01.177Z,3.90
2023-02-04T18:33:30.959Z,4.57
2023-02-04T18:36:02.637Z,7.47
2023-02-04T18:38:34.316Z,7.67
2023-02-04T18:41:27.612Z,6.10
2023-02-04T18:44:02.383Z,5.63
2023-02-04T18:46:36.383Z,7.57
2023-02-04T18:49:08.744Z,6.50
2023-02-04T18:51:41.321Z,9.60
2023-02-04T18:54:34.470Z,7.60
2023-02-04T18:57:21.668Z,9.50
2023-02-04T18:59:49.530Z,7.73
2023-02-04T19:02:36.330Z,11.40
2023-02-04T19:05:18.934Z,14.10
2023-02-04T19:07:48.187Z,12.93
2023-02-04T19:10:29.475Z,6.30
2023-02-04T19:13:11.319Z,4.97
2023-02-04T19:15:40.565Z,10.10
2023-02-04T19:18:21.490Z,14.53
2023-02-04T19:20:49.607Z,15.43
2023-02-04T19:23:21.607Z,10.10
2023-02-04T19:25:51.478Z,5.00
2023-02-04T19:28:30.973Z,2.90
2023-02-04T19:31:03.216Z,3.00
2023-02-04T19:33:36.795Z,3.63
2023-02-04T19:36:24.672Z,6.40
2023-02-04T19:38:59.861Z,6.77
2023-02-04T19:41:30.615Z,14.10
2023-02-04T19:44:31.815Z,12.10
2023-02-04T19:47:19.364Z,9.90
2023-02-04T19:49:47.346Z,7.63
2023-02-04T19:52:31.003Z,8.80
2023-02-04T19:55:31.864Z,8.00
2023-02-04T19:58:02.776Z,4.50
2023-02-04T20:00:42.222Z,4.47
2023-02-04T20:03:25.750Z,4.03
2023-02-04T20:05:53.653Z,21.57
2023-02-04T20:08:42.259Z,23.73
2023-02-04T20:11:36.962Z,37.13
2023-02-04T20:14:29.512Z,28.60
2023-02-04T20:17:00.103Z,14.10
2023-02-04T20:19:34.347Z,16.03
2023-02-04T20:22:25.344Z,16.63
2023-02-04T20:24:56.291Z,10.67
2023-02-04T20:27:28.311Z,11.47
2023-02-04T20:30:01.985Z,23.43
2023-02-04T20:32:30.282Z,26.67
2023-02-04T20:35:08.694Z,22.30
2023-02-04T20:37:37.141Z,21.87
2023-02-04T20:40:19.642Z,15.03
2023-02-04T20:42:52.656Z,14.80
2023-02-04T20:45:29.408Z,9.27
2023-02-04T20:48:00.567Z,5.47
2023-02-04T20:50:39.258Z,5.00
2023-02-04T20:53:22.074Z,6.03
2023-02-04T20:55:51.905Z,5.83
2023-02-04T20:58:23.161Z,5.47
2023-02-04T21:00:54.031Z,6.17
2023-02-04T21:03:28.254Z,7.00
2023-02-04T21:05:58.318Z,9.33
2023-02-04T21:08:35.370Z,8.00
2023-02-04T21:11:03.928Z,6.93
2023-02-04T21:13:33.837Z,8.90
2023-02-04T21:16:01.872Z,10.03
2023-02-04T21:18:30.552Z,9.00
2023-02-04T21:20:58.512Z,5.73
2023-02-04T21:23:26.358Z,7.80
2023-02-04T21:25:54.279Z,5.83
2023-02-04T21:28:22.191Z,7.03
2023-02-04T21:30:51.547Z,6.20
2023-02-04T21:33:21.009Z,6.60
2023-02-04T21:35:48.970Z,5.00
2023-02-04T21:38:16.860Z,5.03
2023-02-04T21:40:44.872Z,5.10
2023-02-04T21:43:12.751Z,4.97
2023-02-04T21:45:40.666Z,5.87
2023-02-04T21:48:09.931Z,5.60
2023-02-04T21:50:40.955Z,5.63
2023-02-04T21:53:09.804Z,4.73
2023-02-04T21:55:38.101Z,4.40
2023-02-04T21:58:07.290Z,4.33
2023-02-04T22:00:35.697Z,3.53
2023-02-04T22:03:03.696Z,2.90
2023-02-04T22:05:33.869Z,3.00
2023-02-04T22:08:01.973Z,3.13
2023-02-04T22:10:35.308Z,3.07
2023-02-04T22:13:04.641Z,3.20
2023-02-04T22:15:32.847Z,2.80
2023-02-04T22:18:00.917Z,3.70
2023-02-04T22:20:30.352Z,4.13
2023-02-04T22:22:59.558Z,4.27
2023-02-04T22:25:27.418Z,5.33
2023-02-04T22:27:56.375Z,4.40
2023-02-04T22:30:24.448Z,4.03
2023-02-04T22:32:52.389Z,4.10
2023-02-04T22:35:20.351Z,3.70
2023-02-04T22:37:48.261Z,4.90
2023-02-04T22:40:17.686Z,6.10
2023-02-04T22:42:45.563Z,6.57
2023-02-04T22:45:13.452Z,6.63
2023-02-04T22:47:41.299Z,6.17
2023-02-04T22:50:10.169Z,5.13
2023-02-04T22:52:38.044Z,4.73
2023-02-04T22:55:06.612Z,4.87
2023-02-04T22:57:35.829Z,4.27
2023-02-04T23:00:06.193Z,4.13
2023-02-04T23:02:34.100Z,5.00
2023-02-04T23:05:01.947Z,5.00
2023-02-04T23:07:29.845Z,6.03
2023-02-04T23:09:57.742Z,5.67
2023-02-04T23:12:25.745Z,6.37
2023-02-04T23:14:54.940Z,6.90
2023-02-04T23:17:22.844Z,5.70
2023-02-04T23:19:50.780Z,5.37
2023-02-04T23:22:18.768Z,4.83
2023-02-04T23:24:46.721Z,4.83
2023-02-04T23:27:14.582Z,4.27
2023-02-04T23:29:42.419Z,3.90
2023-02-04T23:32:11.641Z,4.60
2023-02-04T23:34:39.513Z,4.43
2023-02-04T23:37:07.388Z,4.80
2023-02-04T23:39:35.272Z,4.43
2023-02-04T23:42:03.268Z,4.97
2023-02-04T23:44:31.265Z,4.83
2023-02-04T23:46:59.214Z,4.87
2023-02-04T23:49:28.431Z,4.50
2023-02-04T23:51:56.271Z,4.63
2023-02-04T23:54:24.618Z,4.67
2023-02-04T23:56:53.325Z,4.23
2023-02-04T23:59:21.230Z,3.83
